createdAt,value
2023-02-02T00:02:09.630Z,14.00
2023-02-02T00:05:10.901Z,14.98
2023-02-02T00:08:12.190Z,13.25
2023-02-02T00:11:13.475Z,12.85
2023-02-02T00:14:14.778Z,14.40
2023-02-02T00:17:16.080Z,12.90
2023-02-02T00:20:17.388Z,13.70
2023-02-02T00:23:18.709Z,12.32
2023-02-02T00:26:20.072Z,13.50
2023-02-02T00:29:21.411Z,13.63
2023-02-02T00:32:22.717Z,12.93
2023-02-02T00:35:24.168Z,12.40
2023-02-02T00:38:25.614Z,14.63
2023-02-02T00:41:26.898Z,12.13
2023-02-02T00:44:28.165Z,12.03
2023-02-02T00:47:29.541Z,13.07
2023-02-02T00:50:30.839Z,12.38
2023-02-02T00:53:32.116Z,14.15
2023-02-02T00:56:33.559Z,11.98
2023-02-02T00:59:34.869Z,11.73
2023-02-02T01:02:36.174Z,12.73
2023-02-02T01:05:37.475Z,11.65
2023-02-02T01:08:38.776Z,11.82
2023-02-02T01:11:40.087Z,12.20
2023-02-02T01:14:41.403Z,11.00
2023-02-02T01:17:42.681Z,11.57
2023-02-02T01:20:43.962Z,12.90
2023-02-02T01:23:45.281Z,11.85
2023-02-02T01:26:46.641Z,11.40
2023-02-02T01:29:47.941Z,11.93
2023-02-02T01:32:49.278Z,11.88
2023-02-02T01:35:50.568Z,11.05
2023-02-02T01:38:51.864Z,12.20
2023-02-02T01:41:53.181Z,11.88
2023-02-02T01:44:54.458Z,10.33
2023-02-02T01:47:55.758Z,10.77
2023-02-02T01:50:57.055Z,10.48
2023-02-02T01:53:58.336Z,11.13
2023-02-02T01:56:59.633Z,11.80
2023-02-02T02:00:00.926Z,10.33
2023-02-02T02:03:02.199Z,10.35
2023-02-02T02:06:03.570Z,10.60
2023-02-02T02:09:05.104Z,10.13
2023-02-02T02:12:06.398Z,10.73
2023-02-02T02:15:07.681Z,10.07
2023-02-02T02:18:08.978Z,9.57
2023-02-02T02:21:10.244Z,9.93
2023-02-02T02:24:11.554Z,10.65
2023-02-02T02:27:13.064Z,11.35
2023-02-02T02:30:14.337Z,10.23
2023-02-02T02:33:15.645Z,9.65
2023-02-02T02:36:16.948Z,9.98
2023-02-02T02:39:18.247Z,9.80
2023-02-02T02:42:19.513Z,10.10
2023-02-02T02:45:20.960Z,9.10
2023-02-02T02:48:22.239Z,11.07
2023-02-02T02:51:23.548Z,8.85
2023-02-02T02:54:24.855Z,9.85
2023-02-02T02:57:26.178Z,9.80
2023-02-02T03:00:27.470Z,9.23
2023-02-02T03:03:28.781Z,10.60
2023-02-02T03:06:30.065Z,10.73
2023-02-02T03:09:31.331Z,9.93
2023-02-02T03:12:32.621Z,8.95
2023-02-02T03:15:33.968Z,8.83
2023-02-02T03:18:35.277Z,8.77
2023-02-02T03:21:36.567Z,10.50
2023-02-02T03:24:37.851Z,8.90
2023-02-02T03:27:39.185Z,9.50
2023-02-02T03:30:40.505Z,9.43
2023-02-02T03:33:41.839Z,8.30
2023-02-02T03:36:43.134Z,9.07
2023-02-02T03:39:44.506Z,7.75
2023-02-02T03:42:45.779Z,7.93
2023-02-02T03:45:47.068Z,7.73
2023-02-02T03:48:48.345Z,7.97
2023-02-02T03:51:49.632Z,7.40
2023-02-02T03:54:50.911Z,6.72
2023-02-02T03:57:52.212Z,6.55
2023-02-02T04:00:53.502Z,6.90
2023-02-02T04:03:54.842Z,6.20
2023-02-02T04:06:56.128Z,6.03
2023-02-02T04:09:57.427Z,5.93
2023-02-02T04:12:58.703Z,6.68
2023-02-02T04:16:00.147Z,5.53
2023-02-02T04:19:01.569Z,5.57
2023-02-02T04:22:02.849Z,6.22
2023-02-02T04:25:04.137Z,5.75
2023-02-02T04:28:05.436Z,6.43
2023-02-02T04:31:06.779Z,5.13
2023-02-02T04:34:08.130Z,5.43
2023-02-02T04:37:09.529Z,6.00
2023-02-02T04:40:10.823Z,5.20
2023-02-02T04:43:12.096Z,5.35
2023-02-02T04:46:13.424Z,4.80
2023-02-02T04:49:14.753Z,6.35
2023-02-02T04:52:16.056Z,5.45
2023-02-02T04:55:17.341Z,5.28
2023-02-02T04:58:18.647Z,5.40
2023-02-02T05:01:20.135Z,5.50
2023-02-02T05:04:21.507Z,4.80
2023-02-02T05:07:22.826Z,5.00
2023-02-02T05:10:24.100Z,6.25
2023-02-02T05:13:25.387Z,5.25
2023-02-02T05:16:28.925Z,4.73
2023-02-02T05:19:30.553Z,4.80
2023-02-02T05:22:31.834Z,5.55
2023-02-02T05:25:33.142Z,5.18
2023-02-02T05:28:34.442Z,5.05
2023-02-02T05:31:35.744Z,5.10
2023-02-02T05:34:37.055Z,4.47
2023-02-02T05:37:38.362Z,5.15
2023-02-02T05:40:39.639Z,4.32
2023-02-02T05:43:40.968Z,4.85
2023-02-02T05:46:42.271Z,4.87
2023-02-02T05:49:43.716Z,4.45
2023-02-02T05:52:45.014Z,5.18
2023-02-02T05:55:46.331Z,5.53
2023-02-02T05:58:47.614Z,4.97
2023-02-02T06:01:48.912Z,6.40
2023-02-02T06:04:50.350Z,5.00
2023-02-02T06:07:51.658Z,5.40
2023-02-02T06:10:52.964Z,4.45
2023-02-02T06:13:54.248Z,4.80
2023-02-02T06:16:55.544Z,5.00
2023-02-02T06:19:56.863Z,5.25
2023-02-02T06:22:58.236Z,6.57
2023-02-02T06:25:59.529Z,5.05
2023-02-02T06:29:00.837Z,5.15
2023-02-02T06:32:02.285Z,10.93
2023-02-02T06:35:03.626Z,5.82
2023-02-02T06:38:04.936Z,5.35
2023-02-02T06:41:06.234Z,5.65
2023-02-02T06:44:07.535Z,4.03
2023-02-02T06:47:08.823Z,7.70
2023-02-02T06:50:10.140Z,7.53
2023-02-02T06:53:11.524Z,5.45
2023-02-02T06:56:12.832Z,10.15
2023-02-02T06:59:14.151Z,37.20
2023-02-02T07:02:15.619Z,34.63
2023-02-02T07:05:16.989Z,38.80
2023-02-02T07:08:18.297Z,41.13
2023-02-02T07:11:19.715Z,41.47
2023-02-02T07:14:21.004Z,34.20
2023-02-02T07:17:22.437Z,38.07
2023-02-02T07:20:23.729Z,34.28
2023-02-02T07:23:25.025Z,27.13
2023-02-02T07:26:26.323Z,27.85
2023-02-02T07:29:27.653Z,22.35
2023-02-02T07:32:28.942Z,33.73
2023-02-02T07:35:30.289Z,19.98
2023-02-02T07:38:31.588Z,18.00
2023-02-02T07:41:32.924Z,24.17
2023-02-02T07:44:34.196Z,18.13
2023-02-02T07:47:35.502Z,19.03
2023-02-02T07:50:36.811Z,12.35
2023-02-02T07:53:38.115Z,22.80
2023-02-02T07:56:39.441Z,26.10
2023-02-02T07:59:40.833Z,22.02
2023-02-02T08:02:42.178Z,16.47
2023-02-02T08:05:43.601Z,16.10
2023-02-02T08:08:44.889Z,14.13
2023-02-02T08:11:46.327Z,16.38
2023-02-02T08:14:47.604Z,20.38
2023-02-02T08:17:48.934Z,10.83
2023-02-02T08:20:50.240Z,17.15
2023-02-02T08:23:51.519Z,17.25
2023-02-02T08:26:52.832Z,16.38
2023-02-02T08:29:54.261Z,16.83
2023-02-02T08:32:55.571Z,10.93
2023-02-02T08:35:56.870Z,12.57
2023-02-02T08:38:58.204Z,11.55
2023-02-02T08:41:59.513Z,4.43
2023-02-02T08:46:01.942Z,11.73
2023-02-02T08:48:22.169Z,8.43
2023-02-02T08:51:23.508Z,5.57
2023-02-02T08:54:24.897Z,6.38
2023-02-02T08:57:26.213Z,41.70
2023-02-02T09:00:27.522Z,40.78
2023-02-02T09:03:28.816Z,40.97
2023-02-02T09:06:30.129Z,27.23
2023-02-02T09:09:31.425Z,28.38
2023-02-02T09:12:32.813Z,24.10
2023-02-02T09:15:34.116Z,31.08
2023-02-02T09:18:35.425Z,15.00
2023-02-02T09:21:36.773Z,19.20
2023-02-02T09:24:38.097Z,17.92
2023-02-02T09:27:39.417Z,21.48
2023-02-02T09:30:40.763Z,26.70
2023-02-02T09:33:42.175Z,32.60
2023-02-02T09:36:43.498Z,24.23
2023-02-02T09:39:44.789Z,16.55
2023-02-02T09:42:46.189Z,22.92
2023-02-02T09:45:47.505Z,19.05
2023-02-02T09:48:48.829Z,11.57
2023-02-02T09:51:50.182Z,21.33
2023-02-02T09:54:51.473Z,37.65
2023-02-02T09:57:52.784Z,44.30
2023-02-02T10:00:54.171Z,19.17
2023-02-02T10:03:55.537Z,24.13
2023-02-02T10:06:56.891Z,23.70
2023-02-02T10:09:58.173Z,17.23
2023-02-02T10:12:59.484Z,24.02
2023-02-02T10:16:01.812Z,16.00
2023-02-02T10:19:03.217Z,15.03
2023-02-02T10:22:04.530Z,13.98
2023-02-02T10:25:05.826Z,12.55
2023-02-02T10:28:07.160Z,17.95
2023-02-02T10:31:08.488Z,18.08
2023-02-02T10:34:09.862Z,14.23
2023-02-02T10:37:11.177Z,13.35
2023-02-02T10:40:12.644Z,15.35
2023-02-02T10:43:13.978Z,12.75
2023-02-02T10:46:15.424Z,11.52
2023-02-02T10:49:16.759Z,14.53
2023-02-02T10:52:18.057Z,16.73
2023-02-02T10:55:19.383Z,16.30
2023-02-02T10:58:20.682Z,13.68
2023-02-02T11:01:22.036Z,11.18
2023-02-02T11:04:23.361Z,10.53
2023-02-02T11:07:24.672Z,13.50
2023-02-02T11:10:26.217Z,10.75
2023-02-02T11:13:27.696Z,10.40
2023-02-02T11:16:41.619Z,11.18
2023-02-02T11:19:44.365Z,13.80
2023-02-02T11:22:45.675Z,14.35
2023-02-02T11:25:46.974Z,9.27
2023-02-02T11:28:48.363Z,9.88
2023-02-02T11:31:49.704Z,9.02
2023-02-02T11:34:51.040Z,12.33
2023-02-02T11:37:52.335Z,13.07
2023-02-02T11:40:53.637Z,10.38
2023-02-02T11:43:54.937Z,72.10
2023-02-02T11:46:56.314Z,66.45
2023-02-02T11:49:59.527Z,53.60
2023-02-02T11:53:01.701Z,42.80
2023-02-02T11:56:03.036Z,43.13
2023-02-02T11:59:04.397Z,37.33
2023-02-02T12:02:05.810Z,32.60
2023-02-02T12:05:07.228Z,23.90
2023-02-02T12:08:08.567Z,28.85
2023-02-02T12:11:09.860Z,24.65
2023-02-02T12:14:11.156Z,23.83
2023-02-02T12:17:12.466Z,20.48
2023-02-02T12:20:13.770Z,17.67
2023-02-02T12:23:15.071Z,14.90
2023-02-02T12:26:16.531Z,17.42
2023-02-02T12:29:17.824Z,21.85
2023-02-02T12:32:19.221Z,23.35
2023-02-02T12:35:20.535Z,21.30
2023-02-02T12:38:21.845Z,23.17
2023-02-02T12:41:23.316Z,15.95
2023-02-02T12:44:24.640Z,13.98
2023-02-02T12:47:25.975Z,24.60
2023-02-02T12:50:27.571Z,11.67
2023-02-02T12:53:29.068Z,16.13
2023-02-02T12:56:30.365Z,15.95
2023-02-02T12:59:31.738Z,13.27
2023-02-02T13:02:33.152Z,17.58
2023-02-02T13:05:34.511Z,14.10
2023-02-02T13:08:35.735Z,16.98
2023-02-02T13:11:37.075Z,14.60
2023-02-02T13:14:38.558Z,12.77
2023-02-02T13:17:39.817Z,11.88
2023-02-02T13:20:41.103Z,15.23
2023-02-02T13:23:42.351Z,15.95
2023-02-02T13:26:43.649Z,12.48
2023-02-02T13:29:47.954Z,14.65
2023-02-02T13:32:49.741Z,10.40
2023-02-02T13:35:51.037Z,14.63
2023-02-02T13:38:52.285Z,6.75
2023-02-02T13:41:53.538Z,19.38
2023-02-02T13:44:54.941Z,36.25
2023-02-02T13:47:56.180Z,27.13
2023-02-02T13:50:57.471Z,32.10
2023-02-02T13:53:58.725Z,31.27
2023-02-02T13:56:59.971Z,24.05
2023-02-02T14:00:01.246Z,33.97
2023-02-02T14:03:02.519Z,29.25
2023-02-02T14:06:03.773Z,25.03
2023-02-02T14:09:05.029Z,34.15
2023-02-02T14:12:06.277Z,25.58
2023-02-02T14:15:07.534Z,24.73
2023-02-02T14:18:08.900Z,19.65
2023-02-02T14:21:10.146Z,25.87
2023-02-02T14:24:11.501Z,21.77
2023-02-02T14:27:12.934Z,17.27
2023-02-02T14:30:14.347Z,22.15
2023-02-02T14:33:15.629Z,19.73
2023-02-02T14:36:16.885Z,15.37
2023-02-02T14:39:18.170Z,11.02
2023-02-02T14:42:19.427Z,16.45
2023-02-02T14:45:20.665Z,13.32
2023-02-02T14:48:21.935Z,18.77
2023-02-02T14:51:23.174Z,17.93
2023-02-02T14:54:24.433Z,16.83
2023-02-02T14:57:25.678Z,19.23
2023-02-02T15:00:27.022Z,15.57
2023-02-02T15:03:28.268Z,14.52
2023-02-02T15:06:29.503Z,18.23
2023-02-02T15:09:30.762Z,12.15
2023-02-02T15:12:32.013Z,9.82
2023-02-02T15:15:33.445Z,10.70
2023-02-02T15:18:34.698Z,8.43
2023-02-02T15:21:36.032Z,12.83
2023-02-02T15:24:37.297Z,12.07
2023-02-02T15:27:45.115Z,13.30
2023-02-02T15:30:56.681Z,11.80
2023-02-02T15:33:58.040Z,10.35
2023-02-02T15:36:59.290Z,13.47
2023-02-02T15:40:00.550Z,6.47
2023-02-02T15:43:01.797Z,11.30
2023-02-02T15:46:03.076Z,10.55
2023-02-02T15:49:04.332Z,10.27
2023-02-02T15:52:05.557Z,9.23
2023-02-02T15:55:06.951Z,13.00
2023-02-02T15:58:08.188Z,17.67
2023-02-02T16:01:09.460Z,23.85
2023-02-02T16:04:10.747Z,132.35
2023-02-02T16:07:12.003Z,108.40
2023-02-02T16:10:13.313Z,86.28
2023-02-02T16:13:14.519Z,67.88
2023-02-02T16:16:15.808Z,40.10
2023-02-02T16:19:17.092Z,30.48
2023-02-02T16:22:18.339Z,24.87
2023-02-02T16:25:19.608Z,18.88
2023-02-02T16:28:20.873Z,19.88
2023-02-02T16:31:22.221Z,24.83
2023-02-02T16:34:23.606Z,11.75
2023-02-02T16:37:24.875Z,13.30
2023-02-02T16:40:26.162Z,13.35
2023-02-02T16:43:27.611Z,10.15
2023-02-02T16:46:28.922Z,14.35
2023-02-02T16:49:30.230Z,7.82
2023-02-02T16:52:31.539Z,1.70
2023-02-02T16:55:47.874Z,4.75
2023-02-02T16:58:50.405Z,3.95
2023-02-02T17:01:51.801Z,4.90
2023-02-02T17:04:53.126Z,2.10
2023-02-02T17:07:54.402Z,2.33
2023-02-02T17:10:55.659Z,2.20
2023-02-02T17:13:56.924Z,2.70
2023-02-02T17:16:58.304Z,3.72
2023-02-02T17:19:59.593Z,5.35
2023-02-02T17:23:00.851Z,2.23
2023-02-02T17:26:02.142Z,1.75
2023-02-02T17:29:03.418Z,2.58
2023-02-02T17:32:04.680Z,2.70
2023-02-02T17:35:05.937Z,2.03
2023-02-02T17:38:07.221Z,1.80
2023-02-02T17:41:08.482Z,2.95
2023-02-02T17:44:09.758Z,3.08
2023-02-02T17:47:11.049Z,3.33
2023-02-02T17:50:12.297Z,1.73
2023-02-02T17:53:13.580Z,2.13
2023-02-02T17:56:14.841Z,2.40
2023-02-02T17:59:16.101Z,2.95
2023-02-02T18:02:17.375Z,1.77
2023-02-02T18:05:18.643Z,2.50
2023-02-02T18:08:19.921Z,2.50
2023-02-02T18:11:21.180Z,2.72
2023-02-02T18:14:22.474Z,3.33
2023-02-02T18:17:23.730Z,2.72
2023-02-02T18:20:24.982Z,2.65
2023-02-02T18:23:26.234Z,2.90
2023-02-02T18:26:27.584Z,2.10
2023-02-02T18:29:28.860Z,2.50
2023-02-02T18:32:30.170Z,2.03
2023-02-02T18:35:31.430Z,2.55
2023-02-02T18:38:32.692Z,2.77
2023-02-02T18:41:33.965Z,2.50
2023-02-02T18:44:35.243Z,2.78
2023-02-02T18:47:36.620Z,2.65
2023-02-02T18:50:37.887Z,1.80
2023-02-02T18:53:39.145Z,3.40
2023-02-02T18:56:40.419Z,1.95
2023-02-02T18:59:43.423Z,2.15
2023-02-02T19:02:44.683Z,1.70
2023-02-02T19:05:45.956Z,1.80
2023-02-02T19:08:47.256Z,1.63
2023-02-02T19:11:48.499Z,2.65
2023-02-02T19:14:49.762Z,1.90
2023-02-02T19:17:51.033Z,2.40
2023-02-02T19:20:52.300Z,2.20
2023-02-02T19:23:53.545Z,1.87
2023-02-02T19:26:54.846Z,2.00
2023-02-02T19:29:56.158Z,1.92
2023-02-02T19:32:57.442Z,1.98
2023-02-02T19:35:58.689Z,1.70
2023-02-02T19:38:59.949Z,2.23
2023-02-02T19:42:01.236Z,1.80
2023-02-02T19:45:02.508Z,2.83
2023-02-02T19:48:03.762Z,1.92
2023-02-02T19:51:05.017Z,1.70
2023-02-02T19:54:06.286Z,1.87
2023-02-02T19:57:07.541Z,2.17
2023-02-02T20:00:08.797Z,2.47
2023-02-02T20:03:10.140Z,1.67
2023-02-02T20:06:11.452Z,1.80
2023-02-02T20:09:12.716Z,1.67
2023-02-02T20:12:13.988Z,2.47
2023-02-02T20:15:15.240Z,2.47
2023-02-02T20:18:16.510Z,2.03
2023-02-02T20:21:17.772Z,2.70
2023-02-02T20:24:19.057Z,2.97
2023-02-02T20:27:20.344Z,3.75
2023-02-02T20:30:21.625Z,2.20
2023-02-02T20:33:22.863Z,2.00
2023-02-02T20:36:24.114Z,1.80
2023-02-02T20:39:25.374Z,1.77
2023-02-02T20:42:26.616Z,1.55
2023-02-02T20:45:27.874Z,2.25
2023-02-02T20:48:29.100Z,1.63
2023-02-02T20:51:30.362Z,1.83
2023-02-02T20:54:31.652Z,2.00
2023-02-02T20:57:32.903Z,2.00
2023-02-02T21:00:34.147Z,2.15
2023-02-02T21:03:35.414Z,2.33
2023-02-02T21:06:36.677Z,2.05
2023-02-02T21:09:37.962Z,1.40
2023-02-02T21:12:39.260Z,2.10
2023-02-02T21:15:40.511Z,1.77
2023-02-02T21:18:41.800Z,1.52
2023-02-02T21:21:43.087Z,2.13
2023-02-02T21:24:44.379Z,4.27
2023-02-02T21:27:45.676Z,2.10
2023-02-02T21:30:47.055Z,1.90
2023-02-02T21:33:48.396Z,1.52
2023-02-02T21:36:49.641Z,2.00
2023-02-02T21:39:50.913Z,1.63
2023-02-02T21:42:52.180Z,1.88
2023-02-02T21:45:53.470Z,2.55
2023-02-02T21:48:54.842Z,2.95
2023-02-02T21:51:56.087Z,1.88
2023-02-02T21:54:57.443Z,1.93
2023-02-02T21:57:58.691Z,1.63
2023-02-02T22:00:59.975Z,1.92
2023-02-02T22:04:01.256Z,1.67
2023-02-02T22:07:02.534Z,1.90
2023-02-02T22:10:03.775Z,1.70
2023-02-02T22:13:05.044Z,1.75
2023-02-02T22:16:06.426Z,1.70
2023-02-02T22:19:07.699Z,1.50
2023-02-02T22:22:08.962Z,2.08
2023-02-02T22:25:10.207Z,1.27
2023-02-02T22:28:11.530Z,2.50
2023-02-02T22:31:13.178Z,2.17
2023-02-02T22:34:14.490Z,1.70
2023-02-02T22:37:15.731Z,1.65
2023-02-02T22:40:16.987Z,1.73
2023-02-02T22:43:18.218Z,2.00
2023-02-02T22:46:19.527Z,2.33
2023-02-02T22:49:20.796Z,2.03
2023-02-02T22:52:22.053Z,1.75
2023-02-02T22:55:23.317Z,1.70
2023-02-02T22:58:24.555Z,2.10
2023-02-02T23:01:25.880Z,2.05
2023-02-02T23:04:27.137Z,1.63
2023-02-02T23:07:28.382Z,2.15
2023-02-02T23:10:30.001Z,2.00
2023-02-02T23:13:31.405Z,2.15
2023-02-02T23:16:32.675Z,2.30
2023-02-02T23:19:33.907Z,1.98
2023-02-02T23:22:35.178Z,1.80
2023-02-02T23:25:36.420Z,1.87
2023-02-02T23:28:37.688Z,1.95
2023-02-02T23:31:38.964Z,2.75
2023-02-02T23:34:40.258Z,1.90
2023-02-02T23:37:41.508Z,1.70
2023-02-02T23:40:42.722Z,2.37
2023-02-02T23:43:43.974Z,2.38
2023-02-02T23:46:45.295Z,2.67
2023-02-02T23:49:46.618Z,2.60
2023-02-02T23:52:47.900Z,1.80
2023-02-02T23:55:49.195Z,1.73
2023-02-02T23:58:50.629Z,2.67
